Flight Number: EUR3026 Duration: 11:30
Departure: Tel Aviv Ben Gurion (LLBG) at 08:00 Distance: 4920 Nm
Arrival: John F Kennedy Int'l (KJFK) at 19:30 Equipment: B777

Weather Information
Ben-Gurion International Airport, Israel (LLBG) 32-00N 034-54E 49M Jan 22, 2018 - 02:50 AM EST / 2018.01.22 0750 UTC
Wind: from the S (180 degrees) at 14 MPH (12 KT):0
Visibility: 5 mile(s):0 Temperature: 62 F (17 C) Dew Point: 44 F (7 C) Relative Humidity: 51% Pressure (altimeter): 29.91 in. Hg (1013 hPa)
ob: LLBG 220750Z 18012KT 9000 NSC 17/07 Q1013 NOSIG cycle: 8
Sunrise: 04:42 Sunset: 15:02 (UTC)

KENNEDY INTERNATIONAL AIRPORT , NY, United States (KJFK) 40-38N 073-46W 9M Jan 22, 2018 - 02:51 AM EST / 2018.01.22 0751 UTC
Wind: from the ESE (110 degrees) at 3 MPH (3 KT):0
Visibility: 10 mile(s):0
Sky conditions: overcast Precipitation last hour: A trace Temperature: 42.1 F (5.6 C) Dew Point: 39.9 F (4.4 C) Relative Humidity: 91% Pressure (altimeter): 30.16 in. Hg (1021 hPa)
ob: KJFK 220751Z 11003KT 10SM OVC055 06/04 A3016 RMK AO2 RAE00B18E37 SLP213 P0000 T00560044 cycle: 8
Sunrise: 12:15 Sunset: 21:57 (UTC)

TAF:2018/01/22 06:57 TAF KJFK 220553Z 2206/2312 19004KT P6SM OVC035 FM220800 VRB03KT P6SM -DZ SCT012 OVC030 FM221200 06005KT 5SM -DZRA BR SCT010 OVC020 FM222100 09007KT P6SM OVC015 FM222300 13005KT P6SM FEW015 BKN050 FM230700 15009KT 6SM -SHRA BR SCT008 OVC035 FM231000 18014KT 3SM SHRA BR OVC006 WS020/23050KT

Previous Pireps for this route
Date Aircraft Flight time Fuel used Landing rate On time
2016-02-03A34010.29201758-289Charter
(pireps marked green are flown by you)

Route map